createdAt,value
2018-03-20T00:00:40.963Z,12.87
2018-03-20T00:03:09.290Z,12.37
2018-03-20T00:05:38.107Z,11.83
2018-03-20T00:08:06.061Z,12.73
2018-03-20T00:10:34.375Z,12.10
2018-03-20T00:13:02.973Z,11.90
2018-03-20T00:15:31.277Z,12.47
2018-03-20T00:17:59.213Z,11.67
2018-03-20T00:20:26.746Z,11.80
2018-03-20T00:22:54.709Z,13.30
2018-03-20T00:25:23.048Z,11.60
2018-03-20T00:27:50.992Z,13.13
2018-03-20T00:30:18.602Z,12.97
2018-03-20T00:32:46.553Z,12.00
2018-03-20T00:35:14.235Z,12.47
2018-03-20T00:37:42.181Z,12.20
2018-03-20T00:40:11.333Z,12.07
2018-03-20T00:42:39.643Z,13.33
2018-03-20T00:45:07.769Z,12.73
2018-03-20T00:47:35.717Z,13.37
2018-03-20T00:50:05.051Z,12.30
2018-03-20T00:52:35.129Z,14.27
2018-03-20T00:55:03.785Z,12.77
2018-03-20T00:57:32.443Z,12.33
2018-03-20T01:00:01.180Z,11.00
2018-03-20T01:02:29.752Z,13.27
2018-03-20T01:04:57.675Z,13.43
2018-03-20T01:07:25.677Z,11.50
2018-03-20T01:09:55.334Z,12.33
2018-03-20T01:12:24.074Z,12.23
2018-03-20T01:14:51.666Z,11.30
2018-03-20T01:17:21.514Z,12.57
2018-03-20T01:19:49.446Z,12.53
2018-03-20T01:22:17.873Z,13.13
2018-03-20T01:24:45.413Z,12.60
2018-03-20T01:27:14.146Z,14.77
2018-03-20T01:29:47.103Z,12.27
2018-03-20T01:32:15.425Z,12.83
2018-03-20T01:34:45.744Z,12.70
2018-03-20T01:37:14.818Z,12.77
2018-03-20T01:39:42.473Z,13.50
2018-03-20T01:42:10.766Z,11.80
2018-03-20T01:44:40.165Z,12.33
2018-03-20T01:47:08.629Z,13.57
2018-03-20T01:49:37.884Z,12.83
2018-03-20T01:52:05.466Z,11.73
2018-03-20T01:54:33.775Z,11.60
2018-03-20T01:57:02.058Z,13.23
2018-03-20T01:59:29.617Z,12.67
2018-03-20T02:01:57.609Z,13.30
2018-03-20T02:04:26.785Z,12.57
2018-03-20T02:06:55.048Z,12.63
2018-03-20T02:09:24.181Z,12.93
2018-03-20T02:11:53.054Z,13.70
2018-03-20T02:14:22.240Z,13.40
2018-03-20T02:16:53.977Z,13.23
2018-03-20T02:19:22.343Z,14.23
2018-03-20T02:21:51.402Z,13.77
2018-03-20T02:24:19.740Z,12.17
2018-03-20T02:26:48.906Z,11.30
2018-03-20T02:29:17.574Z,13.10
2018-03-20T02:31:45.532Z,11.90
2018-03-20T02:34:19.239Z,13.27
2018-03-20T02:36:47.300Z,12.60
2018-03-20T02:39:15.613Z,12.10
2018-03-20T02:41:44.404Z,13.37
2018-03-20T02:44:12.765Z,13.13
2018-03-20T02:46:40.943Z,12.80
2018-03-20T02:49:08.881Z,13.87
2018-03-20T02:51:38.754Z,12.50
2018-03-20T02:54:08.896Z,13.83
2018-03-20T02:56:37.659Z,12.60
2018-03-20T02:59:05.269Z,13.20
2018-03-20T03:01:33.929Z,13.10
2018-03-20T03:04:02.790Z,12.93
2018-03-20T03:06:30.614Z,13.87
2018-03-20T03:08:59.268Z,12.30
2018-03-20T03:11:27.557Z,12.80
2018-03-20T03:13:55.962Z,12.40
2018-03-20T03:16:24.348Z,13.20
2018-03-20T03:18:52.519Z,14.47
2018-03-20T03:21:20.653Z,13.50
2018-03-20T03:23:49.390Z,12.80
2018-03-20T03:26:17.668Z,13.90
2018-03-20T03:28:46.674Z,13.53
2018-03-20T03:31:15.410Z,12.27
2018-03-20T03:33:43.822Z,12.10
2018-03-20T03:36:12.115Z,14.30
2018-03-20T03:38:40.064Z,12.50
2018-03-20T03:41:08.366Z,14.07
2018-03-20T03:43:37.663Z,11.93
2018-03-20T03:46:05.190Z,14.07
2018-03-20T03:48:33.508Z,12.97
2018-03-20T03:51:11.307Z,13.27
2018-03-20T03:54:02.126Z,12.20
2018-03-20T03:56:35.522Z,14.07
2018-03-20T03:59:03.125Z,14.17
2018-03-20T04:01:35.374Z,12.70
2018-03-20T04:04:03.638Z,13.43
2018-03-20T04:06:31.585Z,11.63
2018-03-20T04:09:00.135Z,13.00
2018-03-20T04:11:29.490Z,13.20
2018-03-20T04:13:59.488Z,14.03
2018-03-20T04:16:29.982Z,12.90
2018-03-20T04:19:06.491Z,13.67
2018-03-20T04:21:35.894Z,14.70
2018-03-20T04:24:06.215Z,13.73
2018-03-20T04:26:34.659Z,13.47
2018-03-20T04:29:03.494Z,13.27
2018-03-20T04:31:32.241Z,14.13
2018-03-20T04:34:01.038Z,12.63
2018-03-20T04:36:29.686Z,13.73
2018-03-20T04:38:58.704Z,13.07
2018-03-20T04:41:27.238Z,13.23
2018-03-20T04:43:54.783Z,14.80
2018-03-20T04:46:23.140Z,13.07
2018-03-20T04:48:52.282Z,13.40
2018-03-20T04:51:21.483Z,14.50
2018-03-20T04:53:49.107Z,12.70
2018-03-20T04:56:16.710Z,14.73
2018-03-20T04:58:44.288Z,13.83
2018-03-20T05:01:13.192Z,14.00
2018-03-20T05:03:41.120Z,13.53
2018-03-20T05:06:10.552Z,13.90
2018-03-20T05:08:38.462Z,13.83
2018-03-20T05:11:07.813Z,14.97
2018-03-20T05:13:36.109Z,12.80
2018-03-20T05:16:04.434Z,13.80
2018-03-20T05:18:33.577Z,13.33
2018-03-20T05:21:12.103Z,13.10
2018-03-20T05:23:42.193Z,13.70
2018-03-20T05:26:10.141Z,13.80
2018-03-20T05:28:38.993Z,13.93
2018-03-20T05:31:06.954Z,13.20
2018-03-20T05:33:36.102Z,14.37
2018-03-20T05:36:04.084Z,13.83
2018-03-20T05:38:34.018Z,15.37
2018-03-20T05:41:01.982Z,14.10
2018-03-20T05:43:30.293Z,14.20
2018-03-20T05:45:58.612Z,13.70
2018-03-20T05:48:32.400Z,16.53
2018-03-20T05:51:07.626Z,13.33
2018-03-20T05:53:36.317Z,13.20
2018-03-20T05:56:04.640Z,12.43
2018-03-20T05:58:34.303Z,13.83
2018-03-20T06:01:03.334Z,14.07
2018-03-20T06:03:31.329Z,14.40
2018-03-20T06:06:00.164Z,15.50
2018-03-20T06:08:27.692Z,14.33
2018-03-20T06:10:57.546Z,13.57
2018-03-20T06:13:26.726Z,13.60
2018-03-20T06:15:55.870Z,14.37
2018-03-20T06:18:24.598Z,13.80
2018-03-20T06:20:52.762Z,14.47
2018-03-20T06:23:21.314Z,13.53
2018-03-20T06:25:48.853Z,15.10
2018-03-20T06:28:18.021Z,13.27
2018-03-20T06:30:45.871Z,14.50
2018-03-20T06:33:13.814Z,14.27
2018-03-20T06:35:41.626Z,12.30
2018-03-20T06:38:11.396Z,14.10
2018-03-20T06:40:40.294Z,13.90
2018-03-20T06:43:09.444Z,12.87
2018-03-20T06:45:37.411Z,12.83
2018-03-20T06:48:05.797Z,13.13
2018-03-20T06:50:35.006Z,13.90
2018-03-20T06:53:03.865Z,12.80
2018-03-20T06:55:33.036Z,13.57
2018-03-20T06:58:03.051Z,15.13
2018-03-20T07:00:34.110Z,15.87
2018-03-20T07:03:03.978Z,13.53
2018-03-20T07:05:34.938Z,14.40
2018-03-20T07:08:04.149Z,13.97
2018-03-20T07:10:32.633Z,12.70
2018-03-20T07:13:05.658Z,14.23
2018-03-20T07:15:36.140Z,13.17
2018-03-20T07:18:04.876Z,14.10
2018-03-20T07:20:34.135Z,13.00
2018-03-20T07:23:03.814Z,13.50
2018-03-20T07:25:33.045Z,13.90
2018-03-20T07:28:02.605Z,15.87
2018-03-20T07:30:31.966Z,14.47
2018-03-20T07:33:01.617Z,15.20
2018-03-20T07:35:31.040Z,13.90
2018-03-20T07:37:59.595Z,14.80
2018-03-20T07:40:27.606Z,13.90
2018-03-20T07:42:55.373Z,13.53
2018-03-20T07:45:24.525Z,14.73
2018-03-20T07:47:53.140Z,13.67
2018-03-20T07:50:21.056Z,15.07
2018-03-20T07:52:50.811Z,15.27
2018-03-20T07:55:20.362Z,14.83
2018-03-20T07:57:49.832Z,16.13
2018-03-20T08:00:18.877Z,13.47
2018-03-20T08:02:48.509Z,16.10
2018-03-20T08:05:16.479Z,15.37
2018-03-20T08:07:45.677Z,13.77
2018-03-20T08:10:13.688Z,14.97
2018-03-20T08:12:42.038Z,14.07
2018-03-20T08:15:10.458Z,16.53
2018-03-20T08:17:39.565Z,15.30
2018-03-20T08:20:11.164Z,14.80
2018-03-20T08:22:40.928Z,16.70
2018-03-20T08:25:11.570Z,15.80
2018-03-20T08:27:43.280Z,16.00
2018-03-20T08:30:12.251Z,14.33
2018-03-20T08:32:40.048Z,16.03
2018-03-20T08:35:10.113Z,15.13
2018-03-20T08:37:37.658Z,14.60
2018-03-20T08:40:08.040Z,15.53
2018-03-20T08:42:37.556Z,15.03
2018-03-20T08:45:07.132Z,15.23
2018-03-20T08:47:36.583Z,16.93
2018-03-20T08:50:05.077Z,15.30
2018-03-20T08:52:33.506Z,17.03
2018-03-20T08:55:01.485Z,17.70
2018-03-20T08:57:30.842Z,16.90
2018-03-20T08:59:59.343Z,15.80
2018-03-20T09:02:28.445Z,16.53
2018-03-20T09:04:57.952Z,17.40
2018-03-20T09:07:27.171Z,15.80
2018-03-20T09:09:58.211Z,17.00
2018-03-20T09:12:28.159Z,16.00
2018-03-20T09:14:56.581Z,16.83
2018-03-20T09:17:24.479Z,18.27
2018-03-20T09:19:52.081Z,17.67
2018-03-20T09:22:20.085Z,17.10
2018-03-20T09:24:49.566Z,16.93
2018-03-20T09:27:19.745Z,17.80
2018-03-20T09:29:48.780Z,16.03
2018-03-20T09:32:17.642Z,18.13
2018-03-20T09:34:45.633Z,17.03
2018-03-20T09:37:15.138Z,17.33
2018-03-20T09:39:43.085Z,16.60
2018-03-20T09:42:12.357Z,16.17
2018-03-20T09:44:41.294Z,15.70
2018-03-20T09:47:11.098Z,18.03
2018-03-20T09:49:40.137Z,16.60
2018-03-20T09:52:09.385Z,17.13
2018-03-20T09:54:38.193Z,16.93
2018-03-20T09:57:08.766Z,16.40
2018-03-20T09:59:37.209Z,16.30
2018-03-20T10:02:06.805Z,15.00
2018-03-20T10:04:38.469Z,16.67
2018-03-20T10:07:07.779Z,15.20
2018-03-20T10:09:35.745Z,18.20
2018-03-20T10:12:19.210Z,15.87
2018-03-20T10:14:47.543Z,14.70
2018-03-20T10:17:15.088Z,14.10
2018-03-20T10:19:44.542Z,13.33
2018-03-20T10:22:15.131Z,13.17
2018-03-20T10:24:45.354Z,11.17
2018-03-20T10:27:17.757Z,12.30
2018-03-20T10:29:45.301Z,13.80
2018-03-20T10:32:13.578Z,12.13
2018-03-20T10:34:42.555Z,11.77
2018-03-20T10:37:10.855Z,11.57
2018-03-20T10:39:39.864Z,12.00
2018-03-20T10:42:09.790Z,10.20
2018-03-20T10:44:40.167Z,10.90
2018-03-20T10:47:09.147Z,10.83
2018-03-20T10:49:37.464Z,12.00
2018-03-20T10:52:07.270Z,12.00
2018-03-20T10:54:38.201Z,11.30
2018-03-20T10:57:06.986Z,11.80
2018-03-20T10:59:37.617Z,11.17
2018-03-20T11:02:11.562Z,10.63
2018-03-20T11:04:40.621Z,10.17
2018-03-20T11:07:09.493Z,11.90
2018-03-20T11:09:37.819Z,11.47
2018-03-20T11:12:06.974Z,11.17
2018-03-20T11:14:37.049Z,10.33
2018-03-20T11:17:05.430Z,9.77
2018-03-20T11:19:33.041Z,10.00
2018-03-20T11:22:01.331Z,10.90
2018-03-20T11:24:29.746Z,10.07
2018-03-20T11:26:58.843Z,10.10
2018-03-20T11:29:27.261Z,9.97
2018-03-20T11:31:58.522Z,9.80
2018-03-20T11:34:27.203Z,10.50
2018-03-20T11:36:54.841Z,10.13
2018-03-20T11:39:23.597Z,8.60
2018-03-20T11:41:51.163Z,8.93
2018-03-20T11:44:18.906Z,8.80
2018-03-20T11:46:47.281Z,9.20
2018-03-20T11:49:15.514Z,9.30
2018-03-20T11:51:44.910Z,8.07
2018-03-20T11:54:12.426Z,9.00
2018-03-20T11:56:40.808Z,8.80
2018-03-20T11:59:09.166Z,9.57
2018-03-20T12:01:36.740Z,8.70
2018-03-20T12:04:04.815Z,9.13
2018-03-20T12:06:34.701Z,8.80
2018-03-20T12:09:14.065Z,8.70
2018-03-20T12:11:42.993Z,8.87
2018-03-20T12:14:10.521Z,7.60
2018-03-20T12:16:38.120Z,8.90
2018-03-20T12:19:07.034Z,8.50
2018-03-20T12:21:34.849Z,7.70
2018-03-20T12:24:04.360Z,7.27
2018-03-20T12:26:34.630Z,6.70
2018-03-20T12:29:03.914Z,5.90
2018-03-20T12:31:32.805Z,5.83
2018-03-20T12:34:01.739Z,5.53
2018-03-20T12:36:31.617Z,5.40
2018-03-20T12:39:02.129Z,5.13
2018-03-20T12:41:30.457Z,5.80
2018-03-20T12:43:58.908Z,5.23
2018-03-20T12:46:26.452Z,5.80
2018-03-20T12:48:55.143Z,6.13
2018-03-20T12:51:23.330Z,6.33
2018-03-20T12:53:51.900Z,6.10
2018-03-20T12:56:19.439Z,5.40
2018-03-20T12:58:48.906Z,5.87
2018-03-20T13:01:17.264Z,5.60
2018-03-20T13:03:45.193Z,5.93
2018-03-20T13:06:14.425Z,6.23
2018-03-20T13:08:47.428Z,6.33
2018-03-20T13:11:18.230Z,6.67
2018-03-20T13:13:46.414Z,6.77
2018-03-20T13:16:14.349Z,7.30
2018-03-20T13:18:45.207Z,7.60
2018-03-20T13:21:14.379Z,6.90
2018-03-20T13:23:42.360Z,7.20
2018-03-20T13:26:11.273Z,8.37
2018-03-20T13:28:41.706Z,8.37
2018-03-20T13:31:13.635Z,8.90
2018-03-20T13:33:42.174Z,7.70
2018-03-20T13:36:09.789Z,8.20
2018-03-20T13:38:40.202Z,8.80
2018-03-20T13:41:07.800Z,9.10
2018-03-20T13:43:36.102Z,8.83
2018-03-20T13:46:04.552Z,7.00
2018-03-20T13:48:32.150Z,7.93
2018-03-20T13:51:00.965Z,9.37
2018-03-20T13:53:29.322Z,8.50
2018-03-20T13:55:58.586Z,7.57
2018-03-20T13:58:26.191Z,9.07
2018-03-20T14:00:56.746Z,8.53
2018-03-20T14:03:26.719Z,9.40
2018-03-20T14:05:54.265Z,8.70
2018-03-20T14:08:22.965Z,9.50
2018-03-20T14:10:53.001Z,10.13
2018-03-20T14:13:22.854Z,10.17
2018-03-20T14:15:52.421Z,10.20
2018-03-20T14:18:20.477Z,12.73
2018-03-20T14:20:48.431Z,10.70
2018-03-20T14:23:18.414Z,9.20
2018-03-20T14:25:47.253Z,9.63
2018-03-20T14:28:16.381Z,9.47
2018-03-20T14:30:45.714Z,9.83
2018-03-20T14:33:15.416Z,10.53
2018-03-20T14:35:43.077Z,10.83
2018-03-20T14:38:12.065Z,11.60
2018-03-20T14:40:40.682Z,10.87
2018-03-20T14:43:09.689Z,10.40
2018-03-20T14:45:38.081Z,10.73
2018-03-20T14:48:06.066Z,10.80
2018-03-20T14:50:35.032Z,11.13
2018-03-20T14:53:03.516Z,11.03
2018-03-20T14:55:32.429Z,9.70
2018-03-20T14:58:01.813Z,10.57
2018-03-20T15:00:30.494Z,11.00
2018-03-20T15:02:58.877Z,12.10
2018-03-20T15:05:33.108Z,11.80
2018-03-20T15:08:02.697Z,11.90
2018-03-20T15:10:31.433Z,11.20
2018-03-20T15:13:01.100Z,13.30
2018-03-20T15:15:29.679Z,11.43
2018-03-20T15:17:58.581Z,11.47
2018-03-20T15:20:27.922Z,10.63
2018-03-20T15:22:55.825Z,11.47
2018-03-20T15:25:24.611Z,11.27
2018-03-20T15:27:53.514Z,12.10
2018-03-20T15:30:21.871Z,11.33
2018-03-20T15:32:50.185Z,10.10
2018-03-20T15:35:20.153Z,10.40
2018-03-20T15:37:48.876Z,10.13
2018-03-20T15:40:18.964Z,10.20
2018-03-20T15:42:48.045Z,9.97
2018-03-20T15:45:15.974Z,9.10
2018-03-20T15:47:45.105Z,9.50
2018-03-20T15:50:13.096Z,9.47
2018-03-20T15:52:42.785Z,9.13
2018-03-20T15:55:12.109Z,9.57
2018-03-20T15:57:40.335Z,9.40
2018-03-20T16:00:07.905Z,10.17
2018-03-20T16:02:36.490Z,10.93
2018-03-20T16:05:04.404Z,9.00
2018-03-20T16:07:33.420Z,10.87
2018-03-20T16:10:01.924Z,11.97
2018-03-20T16:12:29.536Z,10.23
2018-03-20T16:14:57.562Z,10.80
2018-03-20T16:17:28.238Z,10.27
2018-03-20T16:19:56.696Z,11.57
2018-03-20T16:22:24.857Z,11.60
2018-03-20T16:24:53.161Z,11.67
2018-03-20T16:27:23.702Z,16.53
2018-03-20T16:29:53.274Z,12.13
2018-03-20T16:32:22.006Z,12.80
2018-03-20T16:34:50.015Z,11.50
2018-03-20T16:37:18.805Z,12.20
2018-03-20T16:39:47.062Z,12.40
2018-03-20T16:42:14.623Z,15.13
2018-03-20T16:44:45.079Z,12.60
2018-03-20T16:47:13.005Z,13.23
2018-03-20T16:49:42.268Z,12.87
2018-03-20T16:52:09.812Z,13.93
2018-03-20T16:54:41.417Z,12.63
2018-03-20T16:57:08.958Z,14.30
2018-03-20T16:59:38.133Z,13.53
2018-03-20T17:02:05.677Z,13.20
2018-03-20T17:04:34.349Z,13.60
2018-03-20T17:07:03.246Z,12.50
2018-03-20T17:09:32.043Z,14.77
2018-03-20T17:11:59.988Z,13.13
2018-03-20T17:14:28.304Z,12.87
2018-03-20T17:16:56.638Z,12.87
2018-03-20T17:19:26.013Z,12.90
2018-03-20T17:21:53.542Z,13.97
2018-03-20T17:24:22.699Z,14.13
2018-03-20T17:26:50.722Z,14.47
2018-03-20T17:29:19.049Z,13.37
2018-03-20T17:31:47.147Z,15.10
2018-03-20T17:34:15.490Z,13.27
2018-03-20T17:36:44.305Z,12.97
2018-03-20T17:39:12.449Z,13.13
2018-03-20T17:41:40.362Z,13.40
2018-03-20T17:44:08.801Z,13.83
2018-03-20T17:46:37.868Z,13.50
2018-03-20T17:49:07.629Z,15.70
2018-03-20T17:51:36.084Z,13.83
2018-03-20T17:54:05.353Z,13.00
2018-03-20T17:56:33.335Z,12.70
2018-03-20T17:59:01.333Z,13.50
2018-03-20T18:01:29.759Z,14.43
2018-03-20T18:03:58.159Z,11.87
2018-03-20T18:06:27.259Z,14.87
2018-03-20T18:08:55.738Z,16.00
2018-03-20T18:11:24.231Z,13.60
2018-03-20T18:13:53.447Z,14.90
2018-03-20T18:16:22.584Z,15.10
2018-03-20T18:18:52.455Z,14.63
2018-03-20T18:21:21.069Z,15.33
2018-03-20T18:23:49.049Z,15.80
2018-03-20T18:26:18.090Z,14.63
2018-03-20T18:28:46.339Z,14.73
2018-03-20T18:31:17.892Z,16.23
2018-03-20T18:33:52.496Z,15.57
2018-03-20T18:36:21.309Z,14.80
2018-03-20T18:38:49.277Z,16.10
2018-03-20T18:41:18.025Z,14.77
2018-03-20T18:43:46.554Z,15.60
2018-03-20T18:46:14.869Z,16.70
2018-03-20T18:48:43.269Z,15.03
2018-03-20T18:51:10.873Z,15.50
2018-03-20T18:53:38.809Z,15.73
2018-03-20T18:56:08.886Z,15.87
2018-03-20T18:58:37.410Z,14.97
2018-03-20T19:01:05.928Z,16.07
2018-03-20T19:03:34.102Z,16.83
2018-03-20T19:06:02.902Z,16.67
2018-03-20T19:08:30.500Z,15.77
2018-03-20T19:11:02.027Z,20.30
2018-03-20T19:13:31.840Z,18.80
2018-03-20T19:16:01.602Z,15.90
2018-03-20T19:18:30.784Z,16.80
2018-03-20T19:21:12.283Z,16.90
2018-03-20T19:23:43.314Z,17.50
2018-03-20T19:26:13.637Z,20.30
2018-03-20T19:28:42.503Z,15.73
2018-03-20T19:31:11.405Z,16.43
2018-03-20T19:33:40.262Z,16.50
2018-03-20T19:36:09.685Z,16.20
2018-03-20T19:38:38.844Z,15.53
2018-03-20T19:41:06.477Z,16.23
2018-03-20T19:43:35.827Z,22.20
2018-03-20T19:46:04.825Z,18.07
2018-03-20T19:48:34.624Z,17.20
2018-03-20T19:51:03.479Z,18.30
2018-03-20T19:53:32.502Z,23.60
2018-03-20T19:56:01.376Z,17.70
2018-03-20T19:58:30.242Z,16.83
2018-03-20T20:01:00.010Z,17.67
2018-03-20T20:03:31.092Z,18.20
2018-03-20T20:06:01.699Z,18.10
2018-03-20T20:08:31.373Z,17.10
2018-03-20T20:11:01.991Z,15.17
2018-03-20T20:13:32.075Z,17.50
2018-03-20T20:16:01.821Z,18.13
2018-03-20T20:18:31.628Z,18.87
2018-03-20T20:21:00.945Z,18.43
2018-03-20T20:23:33.629Z,18.80
2018-03-20T20:26:02.618Z,21.67
2018-03-20T20:28:32.100Z,18.73
2018-03-20T20:31:02.293Z,19.90
2018-03-20T20:33:31.838Z,19.63
2018-03-20T20:36:00.904Z,19.03
2018-03-20T20:38:31.670Z,20.93
2018-03-20T20:41:02.928Z,19.50
2018-03-20T20:43:30.523Z,19.67
2018-03-20T20:45:59.950Z,19.43
2018-03-20T20:48:29.558Z,20.53
2018-03-20T20:50:58.254Z,19.00
2018-03-20T20:53:27.647Z,21.83
2018-03-20T20:55:58.249Z,22.97
2018-03-20T20:58:28.262Z,19.30
2018-03-20T21:01:03.310Z,19.33
2018-03-20T21:03:33.081Z,19.63
2018-03-20T21:06:05.641Z,19.43
2018-03-20T21:08:37.539Z,20.67
2018-03-20T21:11:06.471Z,19.37
2018-03-20T21:13:34.802Z,19.30
2018-03-20T21:16:03.203Z,21.30
2018-03-20T21:18:32.656Z,20.20
2018-03-20T21:21:00.580Z,19.13
2018-03-20T21:23:28.218Z,20.27
2018-03-20T21:25:58.157Z,21.23
2018-03-20T21:28:29.038Z,18.77
2018-03-20T21:30:57.106Z,19.10
2018-03-20T21:33:26.390Z,20.73
2018-03-20T21:35:56.332Z,19.87
2018-03-20T21:38:26.060Z,19.37
2018-03-20T21:40:56.000Z,18.80
2018-03-20T21:43:27.976Z,17.70
2018-03-20T21:45:55.973Z,17.40
2018-03-20T21:48:24.229Z,20.00
2018-03-20T21:50:53.433Z,18.10
2018-03-20T21:53:26.530Z,19.90
2018-03-20T21:56:06.542Z,18.47
2018-03-20T21:58:43.305Z,18.57
2018-03-20T22:01:10.882Z,17.83
2018-03-20T22:03:39.544Z,18.50
2018-03-20T22:06:09.060Z,17.30
2018-03-20T22:08:37.923Z,17.07
2018-03-20T22:11:05.975Z,16.10
2018-03-20T22:13:35.605Z,15.83
2018-03-20T22:16:05.278Z,17.17
2018-03-20T22:18:33.309Z,17.13
2018-03-20T22:21:02.879Z,17.57
2018-03-20T22:23:33.529Z,17.10
2018-03-20T22:26:02.060Z,16.07
2018-03-20T22:28:30.006Z,16.97
2018-03-20T22:31:00.100Z,18.13
2018-03-20T22:33:28.078Z,17.23
2018-03-20T22:35:57.115Z,15.30
2018-03-20T22:38:27.130Z,15.27
2018-03-20T22:40:56.046Z,16.07
2018-03-20T22:43:24.316Z,15.17
2018-03-20T22:45:52.830Z,15.20
2018-03-20T22:48:21.008Z,15.80
2018-03-20T22:50:50.340Z,14.10
2018-03-20T22:53:20.236Z,14.10
2018-03-20T22:55:50.042Z,13.60
2018-03-20T22:58:17.955Z,13.73
2018-03-20T23:00:47.218Z,13.90
2018-03-20T23:03:15.696Z,12.60
2018-03-20T23:05:43.624Z,13.63
2018-03-20T23:08:13.471Z,12.93
2018-03-20T23:10:41.269Z,12.90
2018-03-20T23:13:09.138Z,12.57
2018-03-20T23:15:37.380Z,12.60
2018-03-20T23:18:06.055Z,12.20
2018-03-20T23:20:33.581Z,12.50
2018-03-20T23:23:03.508Z,11.83
2018-03-20T23:25:31.036Z,12.13
2018-03-20T23:28:00.042Z,11.80
2018-03-20T23:30:29.825Z,11.07
2018-03-20T23:32:59.600Z,11.10
2018-03-20T23:35:27.129Z,11.90
2018-03-20T23:37:57.000Z,11.27
2018-03-20T23:40:26.517Z,13.10
2018-03-20T23:42:54.069Z,10.53
2018-03-20T23:45:21.997Z,12.27
2018-03-20T23:47:50.749Z,11.80
2018-03-20T23:50:18.739Z,11.20
2018-03-20T23:52:48.197Z,11.67
2018-03-20T23:55:15.845Z,11.13
2018-03-20T23:57:44.657Z,12.17
